HKL Eiryu — JD2311 — position and weather

sailwx.info

Track history (hours):
 
Tides and Currents Weather Stations Pressure Air Temp Water Temp Dewpoint Dewpoint Depression Visibility Wind Speed Wind Dir Waves Ship Positions

HKL Eiryu

Last reported at 2017-Dec-10 19:29 UTC. Time now 2017-Dec-12 02:56 UTC.
Position N 34°42' E 139°07'.

Length 75 m.

Type: Ship. MMSI: 431501876.

Date/timePositionNaut miles runAvg speedWind from/ knotsBaromVisibWave heightAir tempDewpointWater temp
2017-Dec-10 19:29N 34°42' E 139°07'  
2017-Dec-03 21:30N 34°04' E 132°42'712.6
2017-Dec-03 20:59N 34°00' E 132°36'3811.7
2017-Dec-03 17:43N 33°45' E 131°53'2912.9
2017-Dec-03 15:28N 33°51' E 131°19'613.1
2017-Dec-03 15:00N 33°53' E 131°12'613.0
2017-Dec-03 14:30N 33°56' E 131°05'611.6
2017-Dec-03 14:00N 33°58' E 130°59'510.3
2017-Dec-03 13:30N 33°54' E 130°55'4 8.9
2017-Dec-03 13:00N 33°58' E 130°52'611.6
2017-Dec-03 12:30N 34°04' E 130°51'611.9
2017-Dec-03 12:00N 34°10' E 130°50'612.0
2017-Dec-03 11:30N 34°16' E 130°49'  
Track history (hours):
 
Tides and Currents Weather Stations Pressure Air Temp Water Temp Dewpoint Dewpoint Depression Visibility Wind Speed Wind Dir Waves Ship Positions

HKL Eiryu

Last reported at 2017-Dec-10 19:29 UTC. Time now 2017-Dec-12 02:56 UTC.
Position N 34°42' E 139°07'.

Length 75 m.

Type: Ship. MMSI: 431501876.

Date/timePositionNaut miles runAvg speedWind from/ knotsBaromVisibWave heightAir tempDewpointWater temp
2017-Dec-10 19:29N 34°42' E 139°07'  
2017-Dec-03 21:30N 34°04' E 132°42'712.6
2017-Dec-03 20:59N 34°00' E 132°36'3811.7
2017-Dec-03 17:43N 33°45' E 131°53'2912.9
2017-Dec-03 15:28N 33°51' E 131°19'613.1
2017-Dec-03 15:00N 33°53' E 131°12'613.0
2017-Dec-03 14:30N 33°56' E 131°05'611.6
2017-Dec-03 14:00N 33°58' E 130°59'510.3
2017-Dec-03 13:30N 33°54' E 130°55'4 8.9
2017-Dec-03 13:00N 33°58' E 130°52'611.6
2017-Dec-03 12:30N 34°04' E 130°51'611.9
2017-Dec-03 12:00N 34°10' E 130°50'612.0
2017-Dec-03 11:30N 34°16' E 130°49'  

Dump ship's entire track history